createdAt,value
2023-03-15T00:00:12.490Z,4.08
2023-03-15T00:02:40.035Z,4.06
2023-03-15T00:05:10.161Z,4.06
2023-03-15T00:07:39.863Z,4.12
2023-03-15T00:10:07.488Z,4.07
2023-03-15T00:12:34.529Z,4.18
2023-03-15T00:15:02.696Z,4.33
2023-03-15T00:17:34.805Z,4.18
2023-03-15T00:20:04.963Z,4.09
2023-03-15T00:22:31.920Z,3.91
2023-03-15T00:24:58.854Z,4.05
2023-03-15T00:27:25.913Z,3.85
2023-03-15T00:29:52.760Z,3.94
2023-03-15T00:32:19.742Z,4.08
2023-03-15T00:34:49.246Z,4.26
2023-03-15T00:37:19.763Z,4.06
2023-03-15T00:39:48.420Z,3.94
2023-03-15T00:42:15.977Z,4.01
2023-03-15T00:44:45.776Z,4.27
2023-03-15T00:47:15.048Z,4.00
2023-03-15T00:49:42.130Z,3.93
2023-03-15T00:52:13.592Z,3.86
2023-03-15T00:54:52.199Z,3.99
2023-03-15T00:57:19.361Z,3.90
2023-03-15T00:59:48.674Z,4.06
2023-03-15T01:02:15.528Z,4.13
2023-03-15T01:04:44.887Z,3.95
2023-03-15T01:07:12.163Z,3.92
2023-03-15T01:09:39.115Z,3.98
2023-03-15T01:12:06.611Z,4.07
2023-03-15T01:14:37.180Z,3.90
2023-03-15T01:17:04.077Z,3.54
2023-03-15T01:19:33.102Z,3.78
2023-03-15T01:21:59.983Z,3.82
2023-03-15T01:24:26.914Z,3.94
2023-03-15T01:26:54.038Z,3.91
2023-03-15T01:29:20.918Z,4.03
2023-03-15T01:31:47.892Z,4.24
2023-03-15T01:34:14.820Z,4.21
2023-03-15T01:36:44.216Z,4.20
2023-03-15T01:39:13.563Z,4.18
2023-03-15T01:41:40.440Z,4.08
2023-03-15T01:44:16.071Z,4.00
2023-03-15T01:46:48.260Z,4.11
2023-03-15T01:49:35.212Z,4.30
2023-03-15T01:52:16.037Z,4.44
2023-03-15T01:54:50.102Z,4.14
2023-03-15T01:57:49.835Z,4.35
2023-03-15T02:00:20.384Z,4.20
2023-03-15T02:02:53.568Z,4.48
2023-03-15T02:05:28.586Z,4.43
2023-03-15T02:07:55.966Z,4.32
2023-03-15T02:10:41.580Z,4.42
2023-03-15T02:13:08.775Z,4.29
2023-03-15T02:15:35.929Z,4.32
2023-03-15T02:18:05.328Z,4.30
2023-03-15T02:20:41.884Z,4.21
2023-03-15T02:23:18.770Z,4.33
2023-03-15T02:26:10.201Z,4.49
2023-03-15T02:28:37.869Z,4.76
2023-03-15T02:31:07.378Z,4.66
2023-03-15T02:33:45.503Z,4.75
2023-03-15T02:36:19.301Z,4.93
2023-03-15T02:38:46.670Z,4.73
2023-03-15T02:41:18.079Z,4.78
2023-03-15T02:43:52.504Z,4.93
2023-03-15T02:46:19.769Z,4.99
2023-03-15T02:48:51.643Z,4.86
2023-03-15T02:51:24.895Z,4.52
2023-03-15T02:53:51.978Z,4.48
2023-03-15T02:56:18.859Z,4.64
2023-03-15T02:58:45.876Z,4.43
2023-03-15T03:01:17.677Z,4.34
2023-03-15T03:03:49.974Z,4.46
2023-03-15T03:06:20.919Z,4.53
2023-03-15T03:08:48.044Z,4.71
2023-03-15T03:11:16.464Z,4.74
2023-03-15T03:13:43.907Z,4.62
2023-03-15T03:16:11.312Z,4.66
2023-03-15T03:18:39.000Z,4.61
2023-03-15T03:21:09.451Z,4.78
2023-03-15T03:23:39.385Z,4.93
2023-03-15T03:26:20.041Z,4.93
2023-03-15T03:28:48.792Z,4.94
2023-03-15T03:31:27.528Z,4.97
2023-03-15T03:33:56.902Z,4.98
2023-03-15T03:36:24.939Z,5.14
2023-03-15T03:38:53.779Z,5.20
2023-03-15T03:41:21.422Z,5.03
2023-03-15T03:43:50.949Z,5.10
2023-03-15T03:46:17.947Z,4.87
2023-03-15T03:48:45.074Z,5.10
2023-03-15T03:51:14.079Z,5.19
2023-03-15T03:53:41.210Z,5.13
2023-03-15T03:56:09.065Z,5.19
2023-03-15T03:58:38.199Z,5.34
2023-03-15T04:01:05.901Z,5.38
2023-03-15T04:03:33.482Z,5.32
2023-03-15T04:06:01.859Z,5.53
2023-03-15T04:08:31.795Z,5.44
2023-03-15T04:10:58.735Z,5.50
2023-03-15T04:13:26.014Z,5.55
2023-03-15T04:15:57.472Z,5.60
2023-03-15T04:18:24.982Z,5.39
2023-03-15T04:20:54.639Z,5.29
2023-03-15T04:23:25.025Z,5.23
2023-03-15T04:25:55.253Z,5.05
2023-03-15T04:28:22.867Z,4.94
2023-03-15T04:30:52.597Z,5.10
2023-03-15T04:33:19.522Z,5.16
2023-03-15T04:35:48.944Z,5.07
2023-03-15T04:38:15.956Z,5.25
2023-03-15T04:40:42.998Z,5.30
2023-03-15T04:43:10.224Z,5.07
2023-03-15T04:45:41.779Z,5.11
2023-03-15T04:48:08.780Z,5.31
2023-03-15T04:50:35.784Z,5.16
2023-03-15T04:53:02.754Z,4.97
2023-03-15T04:55:29.795Z,4.99
2023-03-15T04:57:58.800Z,5.33
2023-03-15T05:00:25.737Z,5.25
2023-03-15T05:02:55.079Z,5.30
2023-03-15T05:05:29.455Z,5.28
2023-03-15T05:07:59.472Z,5.33
2023-03-15T05:10:26.614Z,5.14
2023-03-15T05:12:53.608Z,4.83
2023-03-15T05:15:20.660Z,4.75
2023-03-15T05:17:48.873Z,4.96
2023-03-15T05:20:16.685Z,5.02
2023-03-15T05:22:45.764Z,4.94
2023-03-15T05:25:12.867Z,5.13
2023-03-15T05:27:42.511Z,5.09
2023-03-15T05:30:10.675Z,5.14
2023-03-15T05:32:44.591Z,5.18
2023-03-15T05:35:12.817Z,5.04
2023-03-15T05:37:43.486Z,5.19
2023-03-15T05:40:13.514Z,5.24
2023-03-15T05:42:41.282Z,5.35
2023-03-15T05:45:09.043Z,5.46
2023-03-15T05:47:38.550Z,5.35
2023-03-15T05:50:06.216Z,5.11
2023-03-15T05:52:37.963Z,5.08
2023-03-15T05:55:05.410Z,5.00
2023-03-15T05:57:34.897Z,5.33
2023-03-15T06:00:07.192Z,5.32
2023-03-15T06:02:38.826Z,5.36
2023-03-15T06:05:06.502Z,5.31
2023-03-15T06:07:36.313Z,5.51
2023-03-15T06:10:06.582Z,5.60
2023-03-15T06:12:33.597Z,5.81
2023-03-15T06:15:00.642Z,5.49
2023-03-15T06:17:32.527Z,5.41
2023-03-15T06:20:05.076Z,5.63
2023-03-15T06:22:32.359Z,5.73
2023-03-15T06:24:59.632Z,5.73
2023-03-15T06:27:29.093Z,5.78
2023-03-15T06:29:57.393Z,5.69
2023-03-15T06:32:24.434Z,5.72
2023-03-15T06:34:52.263Z,5.75
2023-03-15T06:37:28.824Z,5.74
2023-03-15T06:40:01.333Z,5.91
2023-03-15T06:42:28.306Z,6.03
2023-03-15T06:44:57.377Z,5.82
2023-03-15T06:47:24.302Z,6.02
2023-03-15T06:49:51.295Z,6.02
2023-03-15T06:52:21.938Z,5.64
2023-03-15T06:54:51.032Z,5.68
2023-03-15T06:57:17.986Z,5.54
2023-03-15T06:59:44.833Z,5.42
2023-03-15T07:02:20.986Z,5.22
2023-03-15T07:04:48.132Z,5.13
2023-03-15T07:07:17.984Z,5.47
2023-03-15T07:09:44.950Z,5.73
2023-03-15T07:12:14.554Z,5.71
2023-03-15T07:14:41.451Z,5.87
2023-03-15T07:17:08.397Z,5.73
2023-03-15T07:19:37.311Z,5.67
2023-03-15T07:22:08.459Z,6.07
2023-03-15T07:24:35.404Z,7.23
2023-03-15T07:27:02.283Z,7.63
2023-03-15T07:29:32.258Z,7.33
2023-03-15T07:32:01.307Z,7.41
2023-03-15T07:34:30.585Z,7.43
2023-03-15T07:37:00.181Z,8.65
2023-03-15T07:39:27.117Z,9.07
2023-03-15T07:41:56.550Z,10.06
2023-03-15T07:44:23.561Z,11.85
2023-03-15T07:46:51.012Z,12.76
2023-03-15T07:49:20.540Z,14.14
2023-03-15T07:51:47.780Z,13.47
2023-03-15T07:54:17.730Z,14.09
2023-03-15T07:56:44.734Z,15.49
2023-03-15T07:59:11.841Z,16.71
2023-03-15T08:01:39.154Z,16.48
2023-03-15T08:04:06.111Z,16.21
2023-03-15T08:06:37.755Z,14.65
2023-03-15T08:09:05.817Z,13.86
2023-03-15T08:14:02.902Z,15.95
2023-03-15T08:16:29.841Z,17.37
2023-03-15T08:18:56.844Z,17.63
2023-03-15T08:21:25.928Z,15.76
2023-03-15T08:23:52.904Z,14.68
2023-03-15T08:26:20.098Z,12.95
2023-03-15T08:28:47.081Z,10.80
2023-03-15T08:31:14.202Z,9.98
2023-03-15T08:33:43.795Z,8.88
2023-03-15T08:36:11.165Z,8.32
2023-03-15T08:38:41.767Z,8.28
2023-03-15T08:41:08.669Z,8.25
2023-03-15T08:43:35.680Z,7.96
2023-03-15T08:46:02.644Z,8.08
2023-03-15T08:48:32.199Z,7.76
2023-03-15T08:51:06.979Z,7.61
2023-03-15T08:53:37.778Z,7.53
2023-03-15T08:56:08.063Z,7.56
2023-03-15T08:58:37.996Z,8.12
2023-03-15T09:01:05.158Z,8.38
2023-03-15T09:03:32.834Z,8.47
2023-03-15T09:06:00.255Z,8.87
2023-03-15T09:08:28.269Z,9.98
2023-03-15T09:10:58.966Z,11.68
2023-03-15T09:13:26.282Z,14.26
2023-03-15T09:15:55.508Z,15.91
2023-03-15T09:18:23.789Z,18.04
2023-03-15T09:20:52.949Z,18.39
2023-03-15T09:23:19.839Z,19.11
2023-03-15T09:25:49.839Z,20.64
2023-03-15T09:28:16.921Z,21.15
2023-03-15T09:30:43.863Z,21.53
2023-03-15T09:33:14.620Z,20.35
2023-03-15T09:35:46.334Z,20.68
2023-03-15T09:38:13.179Z,20.52
2023-03-15T09:40:47.611Z,19.20
2023-03-15T09:43:31.824Z,20.28
2023-03-15T09:46:32.968Z,20.51
2023-03-15T09:49:34.058Z,21.85
2023-03-15T09:52:13.498Z,23.82
2023-03-15T09:55:11.366Z,24.15
2023-03-15T09:58:05.466Z,21.34
2023-03-15T10:00:50.886Z,22.61
2023-03-15T10:03:45.254Z,23.51
2023-03-15T10:06:30.286Z,24.08
2023-03-15T10:09:00.523Z,24.99
2023-03-15T10:11:59.324Z,24.29
2023-03-15T10:14:51.170Z,20.96
2023-03-15T10:17:42.691Z,22.69
2023-03-15T10:20:30.076Z,22.40
2023-03-15T10:23:28.646Z,22.89
2023-03-15T10:25:58.196Z,20.91
2023-03-15T10:28:25.573Z,18.78
2023-03-15T10:30:53.095Z,16.87
2023-03-15T10:33:32.040Z,15.83
2023-03-15T10:36:11.323Z,16.43
2023-03-15T10:38:39.386Z,18.02
2023-03-15T10:41:15.283Z,16.86
2023-03-15T10:44:00.474Z,17.37
2023-03-15T10:46:28.060Z,18.94
2023-03-15T10:49:12.073Z,18.48
2023-03-15T10:51:50.718Z,19.43
2023-03-15T10:54:24.187Z,19.38
2023-03-15T10:57:15.826Z,20.79
2023-03-15T11:00:07.072Z,19.67
2023-03-15T11:02:37.363Z,17.84
2023-03-15T11:05:10.291Z,16.35
2023-03-15T11:07:37.434Z,18.10
2023-03-15T11:10:07.082Z,18.75
2023-03-15T11:12:40.968Z,17.78
2023-03-15T11:15:15.857Z,16.53
2023-03-15T11:17:50.668Z,14.00
2023-03-15T11:20:31.899Z,11.66
2023-03-15T11:23:03.280Z,10.16
2023-03-15T11:25:34.270Z,9.02
2023-03-15T11:28:01.394Z,8.40
2023-03-15T11:30:31.464Z,8.65
2023-03-15T11:33:08.515Z,9.60
2023-03-15T11:35:48.401Z,10.12
2023-03-15T11:38:37.796Z,10.28
2023-03-15T11:41:56.728Z,15.03
2023-03-15T11:44:50.113Z,18.98
2023-03-15T11:47:54.257Z,20.59
2023-03-15T11:50:21.492Z,22.05
2023-03-15T11:52:54.586Z,22.98
2023-03-15T11:55:27.876Z,23.42
2023-03-15T11:58:30.981Z,21.96
2023-03-15T12:01:06.975Z,23.58
2023-03-15T12:03:43.461Z,22.06
2023-03-15T12:06:16.268Z,22.26
2023-03-15T12:08:52.997Z,22.96
2023-03-15T12:11:22.954Z,23.02
2023-03-15T12:14:01.161Z,22.60
2023-03-15T12:16:42.044Z,24.22
2023-03-15T12:19:21.080Z,21.46
2023-03-15T12:21:52.258Z,21.98
2023-03-15T12:24:38.518Z,22.87
2023-03-15T12:27:18.618Z,22.58
2023-03-15T12:29:47.525Z,23.28
2023-03-15T12:32:21.086Z,24.64
2023-03-15T12:34:58.371Z,24.98
2023-03-15T12:37:47.828Z,24.96
2023-03-15T12:40:22.458Z,24.52
2023-03-15T12:42:49.581Z,20.54
2023-03-15T12:45:16.648Z,18.33
2023-03-15T12:47:52.627Z,16.39
2023-03-15T12:50:48.015Z,15.60
2023-03-15T12:53:19.809Z,13.99
2023-03-15T12:55:47.655Z,13.09
2023-03-15T12:58:22.198Z,12.42
2023-03-15T13:00:54.450Z,11.86
2023-03-15T13:03:24.195Z,11.30
2023-03-15T13:06:29.176Z,10.99
2023-03-15T13:09:37.276Z,11.13
2023-03-15T13:12:35.019Z,11.22
2023-03-15T13:15:14.816Z,10.71
2023-03-15T13:17:58.768Z,9.95
2023-03-15T13:21:06.028Z,9.22
2023-03-15T13:23:34.422Z,8.41
2023-03-15T13:26:23.473Z,8.70
2023-03-15T13:28:59.616Z,8.70
2023-03-15T13:31:31.566Z,8.69
2023-03-15T13:34:15.052Z,8.79
2023-03-15T13:36:49.229Z,9.48
2023-03-15T13:39:26.000Z,12.67
2023-03-15T13:42:20.593Z,16.66
2023-03-15T13:44:47.532Z,18.03
2023-03-15T13:47:24.343Z,18.10
2023-03-15T13:49:56.782Z,18.99
2023-03-15T13:52:23.794Z,19.89
2023-03-15T13:54:53.970Z,20.12
2023-03-15T13:57:23.594Z,20.63
2023-03-15T13:59:54.453Z,21.47
2023-03-15T14:02:27.815Z,20.02
2023-03-15T14:05:05.443Z,20.27
2023-03-15T14:07:46.665Z,20.18
2023-03-15T14:10:27.315Z,21.54
2023-03-15T14:12:58.267Z,23.03
2023-03-15T14:15:44.325Z,23.13
2023-03-15T14:18:11.232Z,21.63
2023-03-15T14:20:45.254Z,22.18
2023-03-15T14:23:19.156Z,21.73
2023-03-15T14:26:11.594Z,22.38
2023-03-15T14:28:39.980Z,22.34
2023-03-15T14:31:27.738Z,23.20
2023-03-15T14:34:08.041Z,23.87
2023-03-15T14:36:43.938Z,22.21
2023-03-15T14:39:25.815Z,21.71
2023-03-15T14:41:57.831Z,20.18
2023-03-15T14:44:25.002Z,18.17
2023-03-15T14:46:52.434Z,16.92
2023-03-15T14:49:29.620Z,16.10
2023-03-15T14:52:03.604Z,14.23
2023-03-15T14:54:31.831Z,13.74
2023-03-15T14:56:58.775Z,13.41
2023-03-15T14:59:25.945Z,13.41
2023-03-15T15:02:01.170Z,12.87
2023-03-15T15:04:33.813Z,12.28
2023-03-15T15:07:03.222Z,11.21
2023-03-15T15:09:32.919Z,10.31
2023-03-15T15:11:59.869Z,9.47
2023-03-15T15:14:29.849Z,9.56
2023-03-15T15:16:56.993Z,9.48
2023-03-15T15:19:24.070Z,9.24
2023-03-15T15:21:51.684Z,8.65
2023-03-15T15:24:24.201Z,7.93
2023-03-15T15:26:51.255Z,7.31
2023-03-15T15:29:21.447Z,6.99
2023-03-15T15:31:48.362Z,7.34
2023-03-15T15:34:15.647Z,6.97
2023-03-15T15:36:46.152Z,7.32
2023-03-15T15:39:31.489Z,8.22
2023-03-15T15:42:00.993Z,9.61
2023-03-15T15:44:28.350Z,9.72
2023-03-15T15:46:55.450Z,9.48
2023-03-15T15:49:25.193Z,9.21
2023-03-15T15:51:52.565Z,8.34
2023-03-15T15:54:26.427Z,8.10
2023-03-15T15:57:06.338Z,8.01
2023-03-15T15:59:38.758Z,7.51
2023-03-15T16:02:17.370Z,7.57
2023-03-15T16:04:44.511Z,7.46
2023-03-15T16:07:15.186Z,7.41
2023-03-15T16:09:44.225Z,7.10
2023-03-15T16:12:27.219Z,7.41
2023-03-15T16:14:54.874Z,7.62
2023-03-15T16:17:25.595Z,7.75
2023-03-15T16:19:55.191Z,7.76
2023-03-15T16:22:27.120Z,7.74
2023-03-15T16:24:57.146Z,7.70
2023-03-15T16:27:26.892Z,7.80
2023-03-15T16:29:56.052Z,7.82
2023-03-15T16:32:42.888Z,7.97
2023-03-15T16:35:17.656Z,7.96
2023-03-15T16:37:46.582Z,7.77
2023-03-15T16:40:23.170Z,7.71
2023-03-15T16:42:50.691Z,7.94
2023-03-15T16:45:20.350Z,7.95
2023-03-15T16:47:49.714Z,7.88
2023-03-15T16:50:19.891Z,7.83
2023-03-15T16:52:58.875Z,7.97
2023-03-15T16:55:33.021Z,7.81
2023-03-15T16:58:13.934Z,7.79
2023-03-15T17:00:44.330Z,7.81
2023-03-15T17:03:14.537Z,7.75
2023-03-15T17:05:45.612Z,7.79
2023-03-15T17:08:20.058Z,7.67
2023-03-15T17:10:49.974Z,7.65
2023-03-15T17:13:28.492Z,7.25
2023-03-15T17:15:57.725Z,7.19
2023-03-15T17:18:24.623Z,7.23
2023-03-15T17:20:51.784Z,7.33
2023-03-15T17:23:21.850Z,7.33
2023-03-15T17:25:49.484Z,7.32
2023-03-15T17:28:16.774Z,7.44
2023-03-15T17:30:43.701Z,7.31
2023-03-15T17:33:11.744Z,7.17
2023-03-15T17:35:48.817Z,7.18
2023-03-15T17:38:21.778Z,7.19
2023-03-15T17:40:49.211Z,6.97
2023-03-15T17:43:17.266Z,6.90
2023-03-15T17:45:44.540Z,6.82
2023-03-15T17:48:11.950Z,6.80
2023-03-15T17:50:41.453Z,6.63
2023-03-15T17:53:18.090Z,6.34
2023-03-15T17:55:53.460Z,6.40
2023-03-15T17:58:23.072Z,6.35
2023-03-15T18:00:52.597Z,6.41
2023-03-15T18:03:19.593Z,6.26
2023-03-15T18:05:47.327Z,6.23
2023-03-15T18:08:21.365Z,6.18
2023-03-15T18:10:50.643Z,6.10
2023-03-15T18:13:21.495Z,6.11
2023-03-15T18:15:49.777Z,6.09
2023-03-15T18:18:19.374Z,5.99
2023-03-15T18:20:49.601Z,6.02
2023-03-15T18:23:17.684Z,6.09
2023-03-15T18:25:48.249Z,5.94
2023-03-15T18:28:15.382Z,6.00
2023-03-15T18:30:44.168Z,6.02
2023-03-15T18:33:16.069Z,5.91
2023-03-15T18:35:46.006Z,5.75
2023-03-15T18:38:13.076Z,5.77
2023-03-15T18:40:39.929Z,5.78
2023-03-15T18:43:06.966Z,5.71
2023-03-15T18:45:37.150Z,5.51
2023-03-15T18:48:07.253Z,5.42
2023-03-15T18:50:35.333Z,5.47
2023-03-15T18:53:06.065Z,5.42
2023-03-15T18:55:33.708Z,5.67
2023-03-15T18:58:03.129Z,5.59
2023-03-15T19:00:35.924Z,5.58
2023-03-15T19:03:05.101Z,5.39
2023-03-15T19:05:37.249Z,5.30
2023-03-15T19:08:04.335Z,5.21
2023-03-15T19:10:31.360Z,5.39
2023-03-15T19:12:58.220Z,5.43
2023-03-15T19:15:28.106Z,5.35
2023-03-15T19:17:57.299Z,5.28
2023-03-15T19:20:26.812Z,5.17
2023-03-15T19:22:55.997Z,5.17
2023-03-15T19:25:22.983Z,5.29
2023-03-15T19:27:49.990Z,5.31
2023-03-15T19:30:21.167Z,5.22
2023-03-15T19:32:49.939Z,5.08
2023-03-15T19:35:23.182Z,4.86
2023-03-15T19:37:50.429Z,4.92
2023-03-15T19:40:20.767Z,4.76
2023-03-15T19:42:51.261Z,4.61
2023-03-15T19:45:20.831Z,4.53
2023-03-15T19:47:47.825Z,4.49
2023-03-15T19:50:15.512Z,4.35
2023-03-15T19:52:48.381Z,4.40
2023-03-15T19:55:22.458Z,4.30
2023-03-15T19:57:49.353Z,4.03
2023-03-15T20:00:20.431Z,4.05
2023-03-15T20:02:52.160Z,4.16
2023-03-15T20:05:23.229Z,4.15
2023-03-15T20:07:54.281Z,4.21
2023-03-15T20:10:24.412Z,4.18
2023-03-15T20:12:59.175Z,4.28
2023-03-15T20:15:29.969Z,4.17
2023-03-15T20:17:59.081Z,4.25
2023-03-15T20:20:25.968Z,4.34
2023-03-15T20:22:52.859Z,4.27
2023-03-15T20:25:20.564Z,4.29
2023-03-15T20:27:47.898Z,4.18
2023-03-15T20:30:17.317Z,4.15
2023-03-15T20:32:44.613Z,4.12
2023-03-15T20:35:12.311Z,4.19
2023-03-15T20:37:42.975Z,4.12
2023-03-15T20:40:13.364Z,4.20
2023-03-15T20:42:41.283Z,4.04
2023-03-15T20:45:12.859Z,4.00
2023-03-15T20:47:41.328Z,3.99
2023-03-15T20:50:10.885Z,3.92
2023-03-15T20:52:43.420Z,3.89
2023-03-15T20:55:16.012Z,3.92
2023-03-15T20:57:45.773Z,3.90
2023-03-15T21:00:23.071Z,3.87
2023-03-15T21:02:50.469Z,3.92
2023-03-15T21:05:18.033Z,3.88
2023-03-15T21:07:45.846Z,3.91
2023-03-15T21:10:13.744Z,3.96
2023-03-15T21:12:40.802Z,4.02
2023-03-15T21:15:08.367Z,3.93
2023-03-15T21:17:35.306Z,3.95
2023-03-15T21:20:02.216Z,4.06
2023-03-15T21:22:34.552Z,4.02
2023-03-15T21:25:02.082Z,3.97
2023-03-15T21:27:34.185Z,3.85
2023-03-15T21:30:01.345Z,4.01
2023-03-15T21:32:28.464Z,3.88
2023-03-15T21:34:58.503Z,3.88
2023-03-15T21:37:25.407Z,3.83
2023-03-15T21:39:54.090Z,3.75
2023-03-15T21:42:21.004Z,3.72
2023-03-15T21:44:50.320Z,3.78
2023-03-15T21:47:18.007Z,3.78
2023-03-15T21:49:45.049Z,3.79
2023-03-15T21:52:16.264Z,3.70
2023-03-15T21:54:44.890Z,3.65
2023-03-15T21:57:14.205Z,3.52
2023-03-15T21:59:45.707Z,3.66
2023-03-15T22:02:14.260Z,3.57
2023-03-15T22:04:46.524Z,3.64
2023-03-15T22:07:13.544Z,3.83
2023-03-15T22:09:41.871Z,3.85
2023-03-15T22:12:09.554Z,3.97
2023-03-15T22:14:41.233Z,4.08
2023-03-15T22:17:08.525Z,4.07
2023-03-15T22:19:35.678Z,4.16
2023-03-15T22:22:05.161Z,4.15
2023-03-15T22:24:34.024Z,4.08
2023-03-15T22:27:01.941Z,4.02
2023-03-15T22:29:29.768Z,4.08
2023-03-15T22:31:56.691Z,3.86
2023-03-15T22:34:27.173Z,3.87
2023-03-15T22:36:54.299Z,3.82
2023-03-15T22:39:24.138Z,3.74
2023-03-15T22:41:51.032Z,3.68
2023-03-15T22:44:20.562Z,3.62
2023-03-15T22:46:50.167Z,3.76
2023-03-15T22:49:17.045Z,3.62
2023-03-15T22:51:46.197Z,3.40
2023-03-15T22:54:13.223Z,3.21
2023-03-15T22:56:43.254Z,3.14
2023-03-15T22:59:12.366Z,3.10
2023-03-15T23:01:44.013Z,3.18
2023-03-15T23:04:16.469Z,3.06
2023-03-15T23:06:43.481Z,2.88
2023-03-15T23:09:11.028Z,2.77
2023-03-15T23:11:37.971Z,2.67
2023-03-15T23:14:09.539Z,2.54
2023-03-15T23:16:36.457Z,2.43
2023-03-15T23:19:08.827Z,2.48
2023-03-15T23:21:36.087Z,2.56
2023-03-15T23:24:03.050Z,2.83
2023-03-15T23:26:29.961Z,2.66
2023-03-15T23:28:57.249Z,2.49
2023-03-15T23:31:26.766Z,2.51
2023-03-15T23:33:53.686Z,2.47
2023-03-15T23:36:20.505Z,2.40
2023-03-15T23:38:47.396Z,2.28
2023-03-15T23:41:14.377Z,2.41
2023-03-15T23:43:41.639Z,2.12
2023-03-15T23:46:14.439Z,2.17
2023-03-15T23:48:42.237Z,2.22
2023-03-15T23:51:12.648Z,2.30
2023-03-15T23:53:39.752Z,2.42
2023-03-15T23:56:07.338Z,2.42
2023-03-15T23:58:34.280Z,2.39
